createdAt,value
2023-08-07T00:03:26.118Z,29.25
2023-08-07T00:08:33.056Z,30.00
2023-08-07T00:13:40.089Z,31.25
2023-08-07T00:18:44.945Z,30.33
2023-08-07T00:23:50.114Z,30.50
2023-08-07T00:28:54.987Z,30.00
2023-08-07T00:34:01.500Z,30.00
2023-08-07T00:39:07.289Z,33.00
2023-08-07T00:44:17.486Z,33.50
2023-08-07T00:49:23.126Z,34.00
2023-08-07T00:54:28.990Z,31.00
2023-08-07T00:59:34.026Z,31.00
2023-08-07T01:04:39.772Z,23.50
2023-08-07T01:09:45.125Z,31.00
2023-08-07T01:15:05.243Z,27.00
2023-08-07T01:20:11.002Z,29.00
2023-08-07T01:25:16.218Z,29.75
2023-08-07T01:40:49.179Z,30.00
2023-08-07T01:45:54.049Z,34.33
2023-08-07T01:50:59.059Z,36.00
2023-08-07T01:56:04.192Z,34.50
2023-08-07T02:01:09.921Z,35.00
2023-08-07T02:06:14.942Z,30.00
2023-08-07T02:16:24.317Z,33.00
2023-08-07T02:21:29.332Z,30.50
2023-08-07T02:26:34.380Z,34.00
2023-08-07T02:31:39.577Z,28.67
2023-08-07T02:36:44.784Z,27.00
2023-08-07T02:41:51.319Z,30.00
2023-08-07T02:46:56.473Z,30.00
2023-08-07T02:52:01.705Z,29.00
2023-08-07T02:57:07.174Z,32.00
2023-08-07T03:02:12.052Z,29.75
2023-08-07T03:07:17.958Z,31.00
2023-08-07T03:12:22.725Z,35.00
2023-08-07T03:17:27.768Z,30.25
2023-08-07T03:22:32.874Z,24.33
2023-08-07T03:27:38.319Z,33.00
2023-08-07T03:32:44.364Z,30.67
2023-08-07T03:37:50.710Z,34.75
2023-08-07T03:42:55.645Z,32.67
2023-08-07T03:48:01.419Z,29.75
2023-08-07T03:53:09.546Z,30.33
2023-08-07T03:58:20.298Z,31.33
2023-08-07T04:08:29.812Z,31.25
2023-08-07T04:13:35.119Z,31.00
2023-08-07T04:23:45.273Z,34.00
2023-08-07T04:28:51.266Z,35.75
2023-08-07T04:33:57.197Z,34.00
2023-08-07T04:39:02.227Z,29.75
2023-08-07T04:44:08.609Z,28.67
2023-08-07T04:49:13.495Z,31.67
2023-08-07T04:54:19.835Z,36.00
2023-08-07T04:59:26.117Z,31.00
2023-08-07T05:04:32.259Z,27.00
2023-08-07T05:09:37.242Z,35.00
2023-08-07T05:14:43.213Z,33.33
2023-08-07T05:19:48.069Z,31.00
2023-08-07T05:24:53.051Z,32.67
2023-08-07T05:29:58.101Z,33.50
2023-08-07T05:35:04.045Z,29.00
2023-08-07T05:40:10.051Z,30.00
2023-08-07T05:45:15.156Z,32.67
2023-08-07T05:50:22.380Z,36.33
2023-08-07T05:55:27.749Z,32.00
2023-08-07T06:00:33.760Z,35.75
2023-08-07T06:05:38.949Z,33.33
2023-08-07T06:10:43.890Z,35.75
2023-08-07T06:15:48.986Z,32.67
2023-08-07T06:20:54.059Z,31.00
2023-08-07T06:25:59.975Z,35.00
2023-08-07T06:36:11.625Z,35.00
2023-08-07T06:41:16.402Z,34.00
2023-08-07T06:46:27.776Z,31.00
2023-08-07T06:51:32.911Z,32.50
2023-08-07T06:56:39.892Z,37.00
2023-08-07T07:01:44.722Z,34.00
2023-08-07T07:06:50.424Z,37.00
2023-08-07T07:11:56.015Z,35.00
2023-08-07T07:17:01.754Z,34.75
2023-08-07T07:22:07.181Z,25.25
2023-08-07T07:27:12.453Z,30.25
2023-08-07T07:32:17.471Z,33.50
2023-08-07T07:42:27.967Z,32.00
2023-08-07T07:47:32.953Z,36.00
2023-08-07T07:52:38.195Z,38.00
2023-08-07T07:57:43.384Z,36.75
2023-08-07T08:02:48.830Z,35.67
2023-08-07T08:07:54.347Z,34.00
2023-08-07T08:13:00.399Z,48.00
2023-08-07T08:18:05.440Z,30.00
2023-08-07T08:23:11.202Z,27.00
2023-08-07T08:28:16.342Z,30.25
2023-08-07T08:33:21.407Z,37.00
2023-08-07T08:38:27.728Z,34.50
2023-08-07T08:43:38.479Z,34.00
2023-08-07T08:48:47.027Z,34.00
2023-08-07T08:53:53.543Z,31.00
2023-08-07T09:04:07.332Z,33.75
2023-08-07T09:09:15.453Z,36.00
2023-08-07T09:14:25.283Z,29.50
2023-08-07T09:19:30.414Z,31.50
2023-08-07T09:24:35.348Z,31.50
2023-08-07T09:29:44.338Z,29.00
2023-08-07T09:34:50.087Z,31.00
2023-08-07T09:39:55.605Z,34.00
2023-08-07T09:45:01.382Z,31.25
2023-08-07T09:50:06.885Z,27.00
2023-08-07T09:55:11.820Z,31.00
2023-08-07T10:00:17.830Z,31.00
2023-08-07T10:05:23.030Z,35.00
2023-08-07T10:10:29.997Z,32.25
2023-08-07T10:15:37.175Z,32.00
2023-08-07T10:20:44.761Z,30.00
2023-08-07T10:25:53.565Z,30.00
2023-08-07T10:31:00.160Z,34.25
2023-08-07T10:36:12.668Z,40.00
2023-08-07T10:41:18.140Z,30.00
2023-08-07T10:46:25.488Z,30.00
2023-08-07T10:51:34.241Z,39.00
2023-08-07T10:56:39.827Z,31.50
2023-08-07T11:01:46.793Z,32.00
2023-08-07T11:06:51.879Z,39.00
2023-08-07T11:11:57.139Z,33.00
2023-08-07T11:17:02.072Z,32.00
2023-08-07T11:22:07.651Z,30.00
2023-08-07T11:27:12.618Z,33.33
2023-08-07T11:32:18.829Z,35.50
2023-08-07T11:37:23.544Z,36.00
2023-08-07T11:42:31.589Z,34.25
2023-08-07T11:47:36.761Z,37.33
2023-08-07T11:52:42.464Z,41.00
2023-08-07T11:57:50.176Z,32.67
2023-08-07T12:02:54.986Z,40.33
2023-08-07T12:08:00.174Z,36.25
2023-08-07T12:13:07.169Z,34.25
2023-08-07T12:18:13.319Z,36.00
2023-08-07T12:23:19.593Z,37.75
2023-08-07T12:28:25.094Z,34.75
2023-08-07T12:33:32.302Z,35.00
2023-08-07T12:38:37.405Z,38.00
2023-08-07T12:43:42.509Z,37.50
2023-08-07T12:48:47.609Z,41.00
2023-08-07T12:58:58.526Z,40.75
2023-08-07T13:09:08.263Z,42.00
2023-08-07T13:14:13.441Z,44.75
2023-08-07T13:19:18.655Z,45.00
2023-08-07T13:24:23.446Z,43.00
2023-08-07T13:29:31.889Z,41.00
2023-08-07T13:34:37.078Z,41.50
2023-08-07T13:39:43.065Z,39.25
2023-08-07T13:44:48.822Z,39.25
2023-08-07T13:49:54.169Z,40.67
2023-08-07T13:54:59.140Z,35.00
2023-08-07T14:00:04.864Z,34.75
2023-08-07T14:10:17.230Z,38.00
2023-08-07T14:15:22.961Z,37.67
2023-08-07T14:20:29.215Z,42.50
2023-08-07T14:25:34.039Z,44.00
2023-08-07T14:30:39.178Z,42.00
2023-08-07T14:35:45.877Z,42.25
2023-08-07T14:40:53.912Z,41.00
2023-08-07T14:45:59.128Z,39.00
2023-08-07T14:51:05.744Z,41.00
2023-08-07T14:56:11.214Z,41.33
2023-08-07T15:01:16.436Z,45.00
2023-08-07T15:06:21.458Z,39.00
2023-08-07T15:11:31.366Z,41.00
2023-08-07T15:16:38.378Z,39.00
2023-08-07T15:21:44.662Z,40.75
2023-08-07T15:26:49.688Z,39.67
2023-08-07T15:31:54.846Z,37.00
2023-08-07T15:37:02.019Z,39.00
2023-08-07T15:42:07.832Z,37.33
2023-08-07T15:47:13.314Z,45.00
2023-08-07T15:52:20.490Z,40.67
2023-08-07T15:57:26.778Z,37.33
2023-08-07T16:02:32.103Z,38.00
2023-08-07T16:07:38.586Z,38.00
2023-08-07T16:12:44.671Z,40.00
2023-08-07T16:17:50.013Z,38.50
2023-08-07T16:22:56.289Z,36.00
2023-08-07T16:28:01.241Z,39.67
2023-08-07T16:33:06.556Z,41.50
2023-08-07T16:38:11.758Z,39.00
2023-08-07T16:43:16.720Z,39.33
2023-08-07T16:48:21.557Z,41.75
2023-08-07T16:53:26.639Z,44.67
2023-08-07T16:58:32.455Z,42.50
2023-08-07T17:03:37.641Z,43.00
2023-08-07T17:08:43.123Z,44.00
2023-08-07T17:13:48.308Z,45.00
2023-08-07T17:18:53.893Z,33.25
2023-08-07T17:23:59.025Z,39.50
2023-08-07T17:29:04.046Z,42.67
2023-08-07T17:34:09.017Z,41.75
2023-08-07T17:39:13.767Z,39.00
2023-08-07T17:44:20.071Z,41.00
2023-08-07T17:49:25.160Z,41.75
2023-08-07T17:54:30.027Z,41.00
2023-08-07T18:04:40.091Z,39.67
2023-08-07T18:09:45.056Z,44.00
2023-08-07T18:14:51.969Z,45.00
2023-08-07T18:19:57.170Z,41.75
2023-08-07T18:25:01.961Z,40.50
2023-08-07T18:30:09.223Z,44.75
2023-08-07T18:35:14.217Z,45.00
2023-08-07T18:40:19.331Z,47.67
2023-08-07T18:45:24.189Z,42.00
2023-08-07T18:50:29.145Z,44.67
2023-08-07T18:55:35.579Z,45.00
2023-08-07T19:00:40.548Z,45.00
2023-08-07T19:05:47.240Z,46.00
2023-08-07T19:10:52.495Z,46.50
2023-08-07T19:15:58.889Z,47.50
2023-08-07T19:21:04.181Z,46.00
2023-08-07T19:26:09.041Z,46.25
2023-08-07T19:31:14.933Z,44.00
2023-08-07T19:36:19.904Z,43.00
2023-08-07T19:41:24.658Z,45.00
2023-08-07T19:46:29.772Z,45.33
2023-08-07T19:51:35.429Z,43.00
2023-08-07T19:56:40.482Z,42.00
2023-08-07T20:01:45.175Z,42.50
2023-08-07T20:06:51.206Z,42.00
2023-08-07T20:11:56.720Z,42.75
2023-08-07T20:17:02.113Z,45.00
2023-08-07T20:22:08.773Z,42.25
2023-08-07T20:27:13.730Z,39.00
2023-08-07T20:32:19.072Z,41.25
2023-08-07T20:37:27.099Z,44.00
2023-08-07T20:42:32.276Z,41.33
2023-08-07T20:47:38.464Z,44.75
2023-08-07T20:52:43.756Z,42.00
2023-08-07T20:57:48.584Z,42.00
2023-08-07T21:02:53.389Z,43.25
2023-08-07T21:07:58.575Z,42.00
2023-08-07T21:13:03.446Z,44.67
2023-08-07T21:18:08.732Z,41.25
2023-08-07T21:23:17.900Z,47.00
2023-08-07T21:28:23.415Z,42.00
2023-08-07T21:33:28.894Z,41.00
2023-08-07T21:43:39.086Z,41.00
2023-08-07T21:48:44.121Z,45.50
2023-08-07T21:53:50.615Z,44.67
2023-08-07T21:58:56.129Z,42.25
2023-08-07T22:04:01.058Z,44.75
2023-08-07T22:09:07.071Z,43.00
2023-08-07T22:14:12.164Z,42.00
2023-08-07T22:19:17.284Z,41.25
2023-08-07T22:24:22.714Z,48.00
2023-08-07T22:29:27.538Z,44.67
2023-08-07T22:34:32.278Z,42.00
2023-08-07T22:39:37.219Z,39.00
2023-08-07T22:44:42.073Z,43.75
2023-08-07T22:49:47.142Z,42.00
2023-08-07T22:54:52.080Z,46.00
2023-08-07T22:59:58.161Z,46.67
2023-08-07T23:05:03.235Z,42.00
2023-08-07T23:10:09.392Z,44.00
2023-08-07T23:15:14.654Z,41.00
2023-08-07T23:20:20.227Z,40.00
2023-08-07T23:25:25.196Z,45.33
2023-08-07T23:30:32.145Z,44.75
2023-08-07T23:35:37.203Z,44.50
2023-08-07T23:40:43.898Z,49.00
2023-08-07T23:45:48.762Z,45.33
2023-08-07T23:50:55.057Z,45.50
2023-08-07T23:56:02.052Z,43.50
